Fort Worth NAS, Texas
Current Conditions -  °F | °C
As of 1:52 AM on Saturday 20 Dec 2014 (Local Time) from KNFW Reporting Station
Overcast Overcast  
Wind Chill: 50°   Ceiling: 1700
Heat Index: 50°   Visibility: 10mi
Dew Point: 40°   Wind: 5mph
Humidity: 68%   Direction: 10°N
Pressure: 30.25"   Gusts: NA
Location:  32.77°N, 97.43°W
Report Text: KNFW 200752Z AUTO 01004KT 10SM BKN017 OVC022 10/04 A3025 RMK AO2 SLP225 T01000044
Loading
Personal Weather Stations






























Interactive Weather Map New forecast layout! Learn more

10-Day Weather Forecast

Advertisements
Track Severe Weather on mobile